JET747 OEJN-HEGN
Flight info
| Callsign | JET747 |
|---|---|
| Flight time | 1h 12m |
| Altitude | 38000 |
| Route | BOMOX2W BOMOX M686 GIBAL L315 SOBEL SOBEL1A |
| Aircraft | A20N/M-SDE2E3FGHIRWXY/LB1 |
Departure
| Time | 2026-05-04 17:05 |
|---|---|
| Airport | King Abdulaziz International Airport (OEJN) |
Arrival
| Time | 2026-05-04 18:17 |
|---|---|
| Airport | Hurghada International Airport (HEGN) |
| Time | Latitude | Longitude | Altitude | Speed | Heading |
|---|---|---|---|---|---|
| 2026-05-04 16:30 | 21.67012 | 39.16581 | 41 ft | 0 kts | 9° |
| 2026-05-04 16:47 | 21.66992 | 39.16578 | 40 ft | 3 kts | 9° |
| 2026-05-04 16:48 | 21.66936 | 39.16568 | 38 ft | 3 kts | 17° |
| 2026-05-04 16:48 | 21.66923 | 39.16565 | 37 ft | 3 kts | 14° |
| 2026-05-04 16:49 | 21.66900 | 39.16535 | 35 ft | 1 kts | 97° |
| 2026-05-04 16:56 | 21.66880 | 39.16704 | 42 ft | 28 kts | 96° |
| 2026-05-04 16:56 | 21.66743 | 39.16899 | 44 ft | 8 kts | 157° |
| 2026-05-04 16:57 | 21.66678 | 39.16924 | 44 ft | 12 kts | 161° |
| 2026-05-04 16:57 | 21.66479 | 39.17007 | 44 ft | 12 kts | 157° |
| 2026-05-04 16:58 | 21.66470 | 39.17009 | 45 ft | 2 kts | 174° |
| 2026-05-04 16:58 | 21.66439 | 39.16995 | 45 ft | 8 kts | 219° |
| 2026-05-04 16:59 | 21.66372 | 39.16837 | 42 ft | 7 kts | 249° |
| 2026-05-04 17:00 | 21.66339 | 39.16747 | 41 ft | 0 kts | 249° |
| 2026-05-04 17:00 | 21.66298 | 39.16629 | 40 ft | 14 kts | 249° |
| 2026-05-04 17:01 | 21.66271 | 39.16536 | 38 ft | 2 kts | 287° |
| 2026-05-04 17:01 | 21.66287 | 39.16555 | 38 ft | 4 kts | 95° |
| 2026-05-04 17:02 | 21.66229 | 39.16638 | 40 ft | 11 kts | 167° |
| 2026-05-04 17:02 | 21.66204 | 39.16637 | 40 ft | 0 kts | 201° |
| 2026-05-04 17:03 | 21.66192 | 39.16629 | 40 ft | 5 kts | 218° |
| 2026-05-04 17:03 | 21.66147 | 39.16507 | 38 ft | 10 kts | 290° |
| 2026-05-04 17:04 | 21.66211 | 39.16451 | 37 ft | 0 kts | 339° |
| 2026-05-04 17:04 | 21.66779 | 39.16223 | 41 ft | 107 kts | 340° |
| 2026-05-04 17:05 | 21.68769 | 39.15456 | 649 ft | 159 kts | 340° |
| 2026-05-04 17:05 | 21.70675 | 39.14738 | 2219 ft | 147 kts | 339° |
| 2026-05-04 17:06 | 21.72914 | 39.13822 | 2789 ft | 196 kts | 339° |
| 2026-05-04 17:06 | 21.74287 | 39.13268 | 3038 ft | 229 kts | 339° |
| 2026-05-04 17:07 | 21.77544 | 39.11966 | 4476 ft | 260 kts | 339° |
| 2026-05-04 17:07 | 21.78673 | 39.11518 | 5100 ft | 264 kts | 339° |
| 2026-05-04 17:07 | 21.80997 | 39.10596 | 5942 ft | 268 kts | 339° |
| 2026-05-04 17:07 | 21.82759 | 39.09898 | 6166 ft | 271 kts | 339° |
| 2026-05-04 17:08 | 21.84529 | 39.09198 | 6192 ft | 272 kts | 339° |
| 2026-05-04 17:08 | 21.88093 | 39.07788 | 6193 ft | 273 kts | 339° |
| 2026-05-04 17:08 | 21.89861 | 39.07055 | 6191 ft | 273 kts | 337° |
| 2026-05-04 17:09 | 21.91609 | 39.06263 | 6191 ft | 273 kts | 336° |
| 2026-05-04 17:09 | 21.93351 | 39.05450 | 6193 ft | 273 kts | 336° |
| 2026-05-04 17:09 | 21.95086 | 39.04629 | 6204 ft | 273 kts | 336° |
| 2026-05-04 17:10 | 21.98593 | 39.02962 | 7593 ft | 277 kts | 336° |
| 2026-05-04 17:10 | 22.03951 | 39.00404 | 10335 ft | 289 kts | 335° |
| 2026-05-04 17:11 | 22.05854 | 38.99493 | 10775 ft | 310 kts | 335° |
| 2026-05-04 17:11 | 22.07874 | 38.98527 | 11373 ft | 323 kts | 336° |
| 2026-05-04 17:11 | 22.12072 | 38.96521 | 13013 ft | 335 kts | 336° |
| 2026-05-04 17:12 | 22.14216 | 38.95496 | 13845 ft | 339 kts | 336° |
| 2026-05-04 17:12 | 22.18582 | 38.93408 | 15447 ft | 348 kts | 336° |
| 2026-05-04 17:13 | 22.25203 | 38.89908 | 17651 ft | 360 kts | 321° |
| 2026-05-04 17:14 | 22.29530 | 38.83223 | 19657 ft | 370 kts | 298° |
| 2026-05-04 17:14 | 22.30750 | 38.80802 | 20298 ft | 374 kts | 298° |
| 2026-05-04 17:14 | 22.33299 | 38.75844 | 21526 ft | 381 kts | 299° |
| 2026-05-04 17:15 | 22.34610 | 38.73339 | 22105 ft | 385 kts | 299° |
| 2026-05-04 17:15 | 22.37286 | 38.68264 | 23216 ft | 392 kts | 300° |
| 2026-05-04 17:16 | 22.40013 | 38.63114 | 23975 ft | 397 kts | 300° |
| 2026-05-04 17:16 | 22.44164 | 38.55275 | 25185 ft | 404 kts | 300° |
| 2026-05-04 17:17 | 22.45566 | 38.52625 | 25648 ft | 407 kts | 300° |
| 2026-05-04 17:17 | 22.50181 | 38.44829 | 26900 ft | 416 kts | 313° |
| 2026-05-04 17:18 | 22.52313 | 38.42704 | 27290 ft | 418 kts | 320° |
| 2026-05-04 17:18 | 22.56940 | 38.38829 | 28039 ft | 423 kts | 323° |
| 2026-05-04 17:19 | 22.61690 | 38.34985 | 28748 ft | 428 kts | 322° |
| 2026-05-04 17:19 | 22.66433 | 38.31026 | 29418 ft | 433 kts | 322° |
| 2026-05-04 17:20 | 22.71172 | 38.26964 | 30050 ft | 437 kts | 321° |
| 2026-05-04 17:20 | 22.75946 | 38.22825 | 30649 ft | 441 kts | 321° |
| 2026-05-04 17:20 | 22.78311 | 38.20769 | 30932 ft | 443 kts | 321° |
| 2026-05-04 17:21 | 22.83142 | 38.16569 | 31531 ft | 446 kts | 321° |
| 2026-05-04 17:21 | 22.87968 | 38.12369 | 32284 ft | 444 kts | 321° |
| 2026-05-04 17:22 | 22.90370 | 38.10276 | 32635 ft | 443 kts | 321° |
| 2026-05-04 17:22 | 22.92770 | 38.08183 | 32965 ft | 442 kts | 321° |
| 2026-05-04 17:23 | 22.99949 | 38.01915 | 33904 ft | 440 kts | 321° |
| 2026-05-04 17:23 | 23.02340 | 37.99826 | 34199 ft | 440 kts | 321° |
| 2026-05-04 17:23 | 23.07103 | 37.95662 | 34762 ft | 439 kts | 321° |
| 2026-05-04 17:24 | 23.09480 | 37.93582 | 35030 ft | 438 kts | 321° |
| 2026-05-04 17:24 | 23.16562 | 37.87383 | 35786 ft | 437 kts | 321° |
| 2026-05-04 17:25 | 23.18926 | 37.85311 | 36015 ft | 437 kts | 321° |
| 2026-05-04 17:25 | 23.23685 | 37.81140 | 36451 ft | 436 kts | 321° |
| 2026-05-04 17:26 | 23.28386 | 37.77017 | 36842 ft | 437 kts | 321° |
| 2026-05-04 17:26 | 23.35474 | 37.70792 | 37393 ft | 437 kts | 321° |
| 2026-05-04 17:27 | 23.40209 | 37.66628 | 37736 ft | 437 kts | 321° |
| 2026-05-04 17:27 | 23.44937 | 37.62464 | 37993 ft | 437 kts | 321° |
| 2026-05-04 17:28 | 23.49636 | 37.58323 | 37999 ft | 432 kts | 321° |
| 2026-05-04 17:29 | 23.63637 | 37.45964 | 38000 ft | 432 kts | 321° |
| 2026-05-04 17:31 | 23.75274 | 37.35674 | 38000 ft | 432 kts | 321° |
| 2026-05-04 17:32 | 23.86146 | 37.26037 | 38000 ft | 432 kts | 321° |
| 2026-05-04 17:33 | 23.95470 | 37.17756 | 38000 ft | 432 kts | 321° |
| 2026-05-04 17:34 | 24.04792 | 37.09460 | 38000 ft | 432 kts | 320° |
| 2026-05-04 17:35 | 24.16435 | 36.99076 | 38000 ft | 432 kts | 320° |
| 2026-05-04 17:36 | 24.21086 | 36.94921 | 38000 ft | 432 kts | 320° |
| 2026-05-04 17:36 | 24.25709 | 36.90787 | 38000 ft | 432 kts | 320° |
| 2026-05-04 17:37 | 24.30363 | 36.86622 | 38000 ft | 432 kts | 320° |
| 2026-05-04 17:37 | 24.35011 | 36.82457 | 38000 ft | 432 kts | 320° |
| 2026-05-04 17:38 | 24.39658 | 36.78290 | 38000 ft | 432 kts | 320° |
| 2026-05-04 17:38 | 24.44305 | 36.74117 | 38000 ft | 432 kts | 320° |
| 2026-05-04 17:39 | 24.51278 | 36.67850 | 38000 ft | 432 kts | 320° |
| 2026-05-04 17:39 | 24.55924 | 36.63669 | 38000 ft | 432 kts | 320° |
| 2026-05-04 17:40 | 24.60569 | 36.59485 | 38000 ft | 432 kts | 320° |
| 2026-05-04 17:40 | 24.65079 | 36.55128 | 38000 ft | 431 kts | 316° |
| 2026-05-04 17:41 | 24.69387 | 36.50536 | 38000 ft | 431 kts | 315° |
| 2026-05-04 17:41 | 24.73670 | 36.45907 | 38000 ft | 431 kts | 315° |
| 2026-05-04 17:42 | 24.77970 | 36.41303 | 38000 ft | 431 kts | 316° |
| 2026-05-04 17:42 | 24.82283 | 36.36719 | 37431 ft | 430 kts | 316° |
| 2026-05-04 17:43 | 24.84441 | 36.34433 | 36829 ft | 431 kts | 316° |
| 2026-05-04 17:43 | 24.86606 | 36.32141 | 36227 ft | 432 kts | 316° |
| 2026-05-04 17:43 | 24.88773 | 36.29849 | 35637 ft | 432 kts | 316° |
| 2026-05-04 17:43 | 24.90913 | 36.27585 | 35058 ft | 432 kts | 316° |
| 2026-05-04 17:44 | 24.93088 | 36.25284 | 34758 ft | 434 kts | 316° |
| 2026-05-04 17:44 | 24.95271 | 36.22971 | 34704 ft | 436 kts | 316° |
| 2026-05-04 17:44 | 24.99648 | 36.18328 | 34700 ft | 437 kts | 316° |
| 2026-05-04 17:45 | 25.04020 | 36.13678 | 34700 ft | 437 kts | 316° |
| 2026-05-04 17:45 | 25.08387 | 36.09024 | 34700 ft | 437 kts | 316° |
| 2026-05-04 17:46 | 25.12755 | 36.04363 | 34699 ft | 437 kts | 316° |
| 2026-05-04 17:46 | 25.17120 | 35.99700 | 34700 ft | 437 kts | 316° |
| 2026-05-04 17:47 | 25.21480 | 35.95038 | 34700 ft | 437 kts | 315° |
| 2026-05-04 17:47 | 25.25843 | 35.90368 | 34700 ft | 437 kts | 315° |
| 2026-05-04 17:48 | 25.30203 | 35.85696 | 34700 ft | 437 kts | 315° |
| 2026-05-04 17:48 | 25.34568 | 35.81014 | 34699 ft | 437 kts | 315° |
| 2026-05-04 17:49 | 25.38923 | 35.76337 | 34700 ft | 437 kts | 315° |
| 2026-05-04 17:49 | 25.43280 | 35.71653 | 34700 ft | 437 kts | 315° |
| 2026-05-04 17:50 | 25.47637 | 35.66965 | 34700 ft | 437 kts | 315° |
| 2026-05-04 17:50 | 25.51989 | 35.62277 | 34699 ft | 437 kts | 315° |
| 2026-05-04 17:51 | 25.56336 | 35.57588 | 34700 ft | 437 kts | 315° |
| 2026-05-04 17:51 | 25.60685 | 35.52894 | 34700 ft | 437 kts | 315° |
| 2026-05-04 17:52 | 25.65036 | 35.48191 | 34700 ft | 437 kts | 315° |
| 2026-05-04 17:52 | 25.69384 | 35.43488 | 34700 ft | 437 kts | 315° |
| 2026-05-04 17:53 | 25.73731 | 35.38779 | 34700 ft | 437 kts | 315° |
| 2026-05-04 17:53 | 25.78076 | 35.34069 | 34700 ft | 437 kts | 315° |
| 2026-05-04 17:54 | 25.82388 | 35.29389 | 34700 ft | 437 kts | 315° |
| 2026-05-04 17:54 | 25.86731 | 35.24670 | 34700 ft | 437 kts | 315° |
| 2026-05-04 17:55 | 25.91072 | 35.19949 | 34700 ft | 437 kts | 315° |
| 2026-05-04 17:55 | 25.95413 | 35.15222 | 34700 ft | 437 kts | 315° |
| 2026-05-04 17:56 | 25.99749 | 35.10495 | 34578 ft | 436 kts | 315° |
| 2026-05-04 17:56 | 26.01911 | 35.08137 | 34076 ft | 435 kts | 315° |
| 2026-05-04 17:56 | 26.04061 | 35.05793 | 33613 ft | 431 kts | 315° |
| 2026-05-04 17:57 | 26.06189 | 35.03472 | 33149 ft | 427 kts | 315° |
| 2026-05-04 17:57 | 26.08300 | 35.01169 | 32673 ft | 423 kts | 315° |
| 2026-05-04 17:57 | 26.10392 | 34.98886 | 32199 ft | 420 kts | 315° |
| 2026-05-04 17:57 | 26.12467 | 34.96620 | 31724 ft | 417 kts | 315° |
| 2026-05-04 17:58 | 26.14531 | 34.94365 | 31249 ft | 414 kts | 315° |
| 2026-05-04 17:58 | 26.16577 | 34.92128 | 30774 ft | 410 kts | 315° |
| 2026-05-04 17:58 | 26.18605 | 34.89910 | 30302 ft | 407 kts | 315° |
| 2026-05-04 17:58 | 26.20617 | 34.87708 | 29832 ft | 404 kts | 315° |
| 2026-05-04 17:59 | 26.22614 | 34.85521 | 29364 ft | 401 kts | 315° |
| 2026-05-04 17:59 | 26.24594 | 34.83352 | 28897 ft | 398 kts | 315° |
| 2026-05-04 17:59 | 26.28514 | 34.79054 | 27974 ft | 392 kts | 315° |
| 2026-05-04 18:00 | 26.30454 | 34.76925 | 27515 ft | 389 kts | 315° |
| 2026-05-04 18:00 | 26.32376 | 34.74816 | 27061 ft | 386 kts | 315° |
| 2026-05-04 18:00 | 26.34283 | 34.72721 | 26613 ft | 384 kts | 315° |
| 2026-05-04 18:00 | 26.36179 | 34.70638 | 26154 ft | 381 kts | 315° |
| 2026-05-04 18:01 | 26.38056 | 34.68574 | 25706 ft | 378 kts | 315° |
| 2026-05-04 18:01 | 26.39927 | 34.66517 | 25258 ft | 376 kts | 315° |
| 2026-05-04 18:01 | 26.41779 | 34.64478 | 24815 ft | 373 kts | 315° |
| 2026-05-04 18:02 | 26.45447 | 34.60440 | 23932 ft | 368 kts | 315° |
| 2026-05-04 18:02 | 26.47260 | 34.58441 | 23491 ft | 365 kts | 315° |
| 2026-05-04 18:02 | 26.49058 | 34.56460 | 23048 ft | 363 kts | 315° |
| 2026-05-04 18:02 | 26.50824 | 34.54511 | 22611 ft | 360 kts | 315° |
| 2026-05-04 18:03 | 26.52599 | 34.52552 | 22165 ft | 358 kts | 315° |
| 2026-05-04 18:03 | 26.54362 | 34.50606 | 21726 ft | 355 kts | 315° |
| 2026-05-04 18:03 | 26.56113 | 34.48672 | 21275 ft | 353 kts | 315° |
| 2026-05-04 18:03 | 26.57853 | 34.46750 | 20828 ft | 350 kts | 315° |
| 2026-05-04 18:04 | 26.59579 | 34.44842 | 20375 ft | 348 kts | 315° |
| 2026-05-04 18:04 | 26.61294 | 34.42945 | 19929 ft | 345 kts | 315° |
| 2026-05-04 18:04 | 26.64683 | 34.39194 | 19028 ft | 340 kts | 315° |
| 2026-05-04 18:05 | 26.66360 | 34.37337 | 18583 ft | 338 kts | 315° |
| 2026-05-04 18:05 | 26.68023 | 34.35494 | 18133 ft | 336 kts | 315° |
| 2026-05-04 18:05 | 26.69678 | 34.33660 | 17681 ft | 333 kts | 315° |
| 2026-05-04 18:05 | 26.71315 | 34.31844 | 17146 ft | 329 kts | 315° |
| 2026-05-04 18:06 | 26.74537 | 34.28269 | 15779 ft | 324 kts | 315° |
| 2026-05-04 18:06 | 26.76127 | 34.26504 | 15110 ft | 320 kts | 315° |
| 2026-05-04 18:06 | 26.77701 | 34.24756 | 14444 ft | 317 kts | 315° |
| 2026-05-04 18:07 | 26.79260 | 34.23024 | 13773 ft | 314 kts | 315° |
| 2026-05-04 18:07 | 26.80800 | 34.21312 | 13192 ft | 309 kts | 315° |
| 2026-05-04 18:07 | 26.82304 | 34.19639 | 12667 ft | 302 kts | 315° |
| 2026-05-04 18:07 | 26.83660 | 34.17876 | 12079 ft | 297 kts | 303° |
| 2026-05-04 18:08 | 26.84741 | 34.15919 | 11486 ft | 294 kts | 300° |
| 2026-05-04 18:08 | 26.85763 | 34.13948 | 10878 ft | 291 kts | 300° |
| 2026-05-04 18:08 | 26.86782 | 34.12000 | 10275 ft | 289 kts | 300° |
| 2026-05-04 18:08 | 26.87806 | 34.10077 | 9671 ft | 286 kts | 301° |
| 2026-05-04 18:09 | 26.89855 | 34.06303 | 8445 ft | 281 kts | 301° |
| 2026-05-04 18:09 | 26.91884 | 34.02609 | 7230 ft | 276 kts | 301° |
| 2026-05-04 18:10 | 26.92887 | 34.00788 | 6623 ft | 273 kts | 301° |
| 2026-05-04 18:10 | 26.93883 | 33.98982 | 6021 ft | 271 kts | 301° |
| 2026-05-04 18:10 | 26.94859 | 33.97212 | 5418 ft | 269 kts | 301° |
| 2026-05-04 18:10 | 26.95837 | 33.95438 | 4829 ft | 266 kts | 301° |
| 2026-05-04 18:11 | 26.96806 | 33.93680 | 4233 ft | 264 kts | 301° |
| 2026-05-04 18:11 | 26.97767 | 33.91935 | 3637 ft | 262 kts | 301° |
| 2026-05-04 18:11 | 26.98718 | 33.90209 | 3136 ft | 257 kts | 301° |
| 2026-05-04 18:11 | 26.99630 | 33.88557 | 2903 ft | 242 kts | 301° |
| 2026-05-04 18:12 | 27.00490 | 33.87007 | 2718 ft | 227 kts | 302° |
| 2026-05-04 18:12 | 27.01343 | 33.85568 | 2452 ft | 218 kts | 310° |
| 2026-05-04 18:12 | 27.02540 | 33.84600 | 2145 ft | 208 kts | 338° |
| 2026-05-04 18:12 | 27.03858 | 33.84156 | 1997 ft | 189 kts | 346° |
| 2026-05-04 18:13 | 27.05107 | 33.83897 | 1813 ft | 175 kts | 351° |
| 2026-05-04 18:13 | 27.06280 | 33.83708 | 1467 ft | 164 kts | 348° |
| 2026-05-04 18:13 | 27.07965 | 33.83258 | 1201 ft | 144 kts | 345° |
| 2026-05-04 18:14 | 27.08290 | 33.83162 | 1161 ft | 145 kts | 343° |
| 2026-05-04 18:14 | 27.08902 | 33.82956 | 1065 ft | 150 kts | 343° |
| 2026-05-04 18:14 | 27.10283 | 33.82527 | 795 ft | 161 kts | 344° |
| 2026-05-04 18:15 | 27.12378 | 33.81876 | 721 ft | 150 kts | 343° |
| 2026-05-04 18:15 | 27.13976 | 33.81380 | 592 ft | 142 kts | 344° |
| 2026-05-04 18:15 | 27.14914 | 33.81054 | 427 ft | 141 kts | 344° |
| 2026-05-04 18:16 | 27.15846 | 33.80763 | 267 ft | 139 kts | 343° |
| 2026-05-04 18:16 | 27.16775 | 33.80489 | 106 ft | 137 kts | 345° |
| 2026-05-04 18:16 | 27.17661 | 33.80215 | 84 ft | 126 kts | 343° |
| 2026-05-04 18:17 | 27.19029 | 33.79774 | 57 ft | 59 kts | 346° |
| 2026-05-04 18:17 | 27.19351 | 33.79679 | 63 ft | 30 kts | 345° |
| 2026-05-04 18:17 | 27.19542 | 33.79619 | 57 ft | 19 kts | 348° |
| 2026-05-04 18:18 | 27.19608 | 33.79656 | 59 ft | 0 kts | 64° |